x

8773259 - Port Lavaca, Tx (vcat2) Weather Station

1:54pm - Sun 23rd Apr 2017 All times are CDT. -5 hours from GMT.

  • Wind
    14mph, 20mph gusts
  • Sea Temp 69°f
  • Air Temp 68°f
  • Sea Pressure 1018.4mb
  • 8773259 - Port Lavaca, Tx
  • 8773259 - Port Lavaca, Tx

More Historic Weather Station data

Upgrade to MSW Pro to gain access to the past 30 days of data for over 8000 Wavebouys and Weather Stations around the globe.

Join Pro

Comparision Forecast

View Surf forecast
   
Sun 04/23 1:54pm 14 20 mph 1018.4mb 69f 68f
1:48pm 14 17 mph 1018.6mb 69f 68f
1:42pm 15 18 mph 1018.6mb 69f 68f
1:36pm 14 18 mph 1018.7mb 69f 67f
1:30pm 11 17 mph 1018.8mb 69f 67f
1:24pm 14 17 mph 1018.9mb 69f 67f
1:18pm 13 17 mph 1019mb 69f 67f
1:12pm 14 18 mph 1019.1mb 69f 67f
1:06pm 10 17 mph 1019.2mb 69f 66f
1:00pm 11 15 mph 1019.3mb 69f 66f
12:54pm 13 18 mph 1019.5mb 69f 66f
12:48pm 13 20 mph 1019.7mb 69f 65f
12:42pm 16 21 mph 1019.8mb 69f 65f
12:36pm 13 16 mph 1019.9mb 69f 65f
12:30pm 11 16 mph 1019.9mb 69f 65f
12:24pm 13 20 mph 1020.1mb 68f 65f
12:18pm 14 18 mph 1020.1mb 68f 64f
12:12pm 15 20 mph 1020.2mb 68f 64f
12:06pm 11 20 mph 1020.2mb 68f 64f
12:00pm 17 21 mph 1020.4mb 68f 64f
11:54am 14 18 mph 1020.5mb 68f 64f
11:48am 14 18 mph 1020.5mb 68f 64f
11:42am 16 22 mph 1020.5mb 68f 64f
11:36am 17 22 mph 1020.5mb 68f 64f
11:30am 16 21 mph 1020.6mb 68f 64f
11:24am 14 18 mph 1020.6mb 68f 63f
11:18am 15 21 mph 1020.6mb 68f 63f
11:12am 14 21 mph 1020.7mb 68f 62f
11:06am 15 20 mph 1020.7mb 68f 63f
11:00am 16 21 mph 1020.7mb 68f 62f
10:54am 14 20 mph 1020.7mb 68f 62f
10:48am 14 20 mph 1020.8mb 68f 62f
10:42am 14 20 mph 1020.9mb 68f 62f
10:36am 14 18 mph 1020.8mb 68f 62f
10:30am 14 22 mph 1020.8mb 68f 61f
10:24am 14 20 mph 1020.8mb 68f 61f
10:18am 13 22 mph 1020.9mb 68f 61f
10:12am 17 22 mph 1021mb 68f 61f
10:06am 13 20 mph 1021mb 68f 61f
10:00am 13 21 mph 1021mb 68f 60f
9:54am 15 21 mph 1020.9mb 68f 60f
9:48am 14 18 mph 1020.8mb 68f 60f
9:42am 15 20 mph 1020.9mb 68f 60f
9:36am 14 20 mph 1020.9mb 68f 60f
9:30am 16 20 mph 1020.9mb 68f 59f
9:24am 14 18 mph 1020.8mb 68f 59f
9:18am 14 16 mph 1020.8mb 68f 58f
9:12am 16 20 mph 1020.9mb 68f 58f
9:06am 14 17 mph 1020.8mb 68f 58f
9:00am 15 21 mph 1020.8mb 68f 58f
8:54am 15 18 mph 1020.7mb 68f 58f
8:48am 13 17 mph 1020.7mb 68f 58f
8:42am 14 18 mph 1020.7mb 68f 57f
8:36am 15 21 mph 1020.6mb 68f 58f
8:30am 14 18 mph 1020.6mb 68f 57f
8:24am 13 17 mph 1020.6mb 68f 58f
8:18am 15 17 mph 1020.6mb 69f 58f
8:12am 14 18 mph 1020.6mb 69f 58f
8:06am 13 20 mph 1020.6mb 69f 57f
8:00am 16 20 mph 1020.6mb 69f 57f
7:54am 14 20 mph 1020.5mb 69f 57f
7:48am 15 20 mph 1020.5mb 69f 57f
7:42am 14 18 mph 1020.4mb 69f 57f
7:36am 15 22 mph 1020.4mb 69f 57f
7:30am 14 21 mph 1020.3mb 69f 58f
7:24am 17 21 mph 1020.2mb 70f 58f
7:18am 17 23 mph 1020.1mb 70f 57f
7:12am 14 20 mph 1020mb 70f 58f
7:06am 17 22 mph 1019.8mb 70f 58f
7:00am 17 22 mph 1019.7mb 70f 58f
6:54am 16 22 mph 1019.7mb 70f 58f
6:48am 16 22 mph 1019.6mb 70f 58f
6:42am 16 23 mph 1019.6mb 70f 58f
6:36am 21 24 mph 1019.6mb 70f 58f
6:30am 17 22 mph 1019.6mb 70f 59f
6:24am 17 22 mph 1019.3mb 71f 59f
6:18am 17 23 mph 1019.4mb 71f 59f
6:12am 17 22 mph 1019.4mb 71f 59f
6:06am 20 26 mph 1019.3mb 71f 60f
6:00am 16 24 mph 1019.1mb 71f 60f
5:54am 18 24 mph 1018.9mb 71f 60f
5:48am 17 23 mph 1019mb 71f 60f
5:42am 16 22 mph 1018.9mb 71f 60f
5:36am 15 21 mph 1018.8mb 71f 60f
5:30am 15 22 mph 1018.8mb 71f 60f
5:24am 16 25 mph 1018.7mb 71f 61f
5:18am 20 25 mph 1018.7mb 71f 61f
5:12am 22 28 mph 1018.6mb 71f 61f
5:06am 20 25 mph 1018.6mb 71f 61f
5:00am 17 24 mph 1018.5mb 72f 61f
4:54am 20 24 mph 1018.6mb 72f 61f
4:48am 17 23 mph 1018.6mb 72f 61f
4:42am 17 21 mph 1018.6mb 72f 61f
4:36am 16 21 mph 1018.5mb 72f 61f
4:30am 17 23 mph 1018.5mb 72f 61f
4:24am 17 22 mph 1018.4mb 72f 62f
4:18am 17 21 mph 1018.3mb 72f 62f
4:12am 16 23 mph 1018.2mb 72f 62f
4:06am 18 22 mph 1018.1mb 72f 62f
4:00am 17 22 mph 1018.3mb 72f 62f
3:54am 20 25 mph 1018.2mb 73f 62f
3:48am 20 25 mph 1018.3mb 73f 62f
3:42am 23 29 mph 1018.2mb 73f 62f
3:36am 22 29 mph 1018.1mb 73f 62f
3:30am 23 29 mph 1018.2mb 73f 62f
3:24am 21 32 mph 1018mb 73f 63f
3:18am 21 26 mph 1018.1mb 73f 62f
3:12am 22 30 mph 1018.1mb 73f 63f
3:06am 22 26 mph 1018.1mb 73f 62f
3:00am 18 26 mph 1018.1mb 73f 63f
2:54am 21 25 mph 1018mb 73f 63f
2:48am 21 25 mph 1018mb 73f 63f
2:42am 22 25 mph 1018.2mb 74f 63f
2:36am 21 25 mph 1018.3mb 74f 63f
2:30am 20 26 mph 1018.3mb 74f 63f
2:24am 23 28 mph 1018.3mb 74f 63f
2:18am 21 29 mph 1018.3mb 74f 63f
2:12am 21 29 mph 1018.3mb 74f 63f
2:06am 22 30 mph 1018.2mb 74f 64f
2:00am 20 28 mph 1018.1mb 74f 64f
1:54am 22 28 mph 1018.1mb 74f 64f
1:48am 23 28 mph 1018.2mb 74f 63f
1:42am 23 31 mph 1018.3mb 75f 63f
1:36am 25 32 mph 1018.3mb 75f 63f
1:30am 21 30 mph 1018.2mb 75f 64f
1:24am 24 33 mph 1018.3mb 75f 63f
1:18am 24 30 mph 1018.3mb 75f 64f
1:12am 23 30 mph 1018.3mb 75f 64f
1:06am 21 26 mph 1018.4mb 75f 64f
1:00am 24 29 mph 1018.5mb 75f 64f
12:54am 24 31 mph 1018.6mb 76f 64f
12:48am 23 30 mph 1018.6mb 76f 64f
12:42am 23 31 mph 1018.6mb 76f 64f
12:36am 23 31 mph 1018.6mb 76f 64f
12:30am 22 28 mph 1018.6mb 76f 64f
12:24am 23 30 mph 1018.6mb 76f 64f
12:18am 26 30 mph 1018.6mb 77f 64f
12:12am 26 31 mph 1018.6mb 77f 64f
12:06am 23 30 mph 1018.6mb 77f 64f
12:00am 23 29 mph 1018.6mb 77f 64f
Sat 04/22 11:54pm 24 31 mph 1018.4mb 77f 64f
11:48pm 23 28 mph 1018.5mb 77f 64f
11:42pm 22 28 mph 1018.3mb 77f 64f
11:36pm 22 29 mph 1018.2mb 77f 64f
11:30pm 22 30 mph 1018.2mb 77f 65f
11:24pm 22 26 mph 1018.1mb 77f 64f
11:18pm 21 26 mph 1018mb 77f 65f
11:12pm 21 29 mph 1018.1mb 77f 65f
11:06pm 22 30 mph 1018mb 78f 65f
11:00pm 25 29 mph 1018.1mb 78f 64f
10:54pm 23 29 mph 1018mb 78f 65f
10:48pm 22 28 mph 1017.9mb 78f 65f
10:42pm 21 26 mph 1017.9mb 78f 65f
10:36pm 23 28 mph 1017.8mb 78f 65f
10:30pm 20 25 mph 1017.7mb 78f 66f
10:24pm 21 26 mph 1017.5mb 79f 66f
10:18pm 22 28 mph 1017.5mb 79f -
10:12pm 21 29 mph 1017.4mb 79f 66f
10:06pm 21 26 mph 1017.3mb 79f 66f
10:00pm 16 22 mph 1017.2mb 79f 66f
9:54pm 16 22 mph 1017.1mb 79f 66f
9:48pm 18 24 mph 1017mb 79f 66f
9:42pm 20 25 mph 1016.9mb 80f 67f
9:36pm 22 28 mph 1016.8mb 80f 67f
9:30pm 21 25 mph 1016.7mb 80f 67f
9:24pm 21 24 mph 1016.5mb 80f 67f
9:18pm 18 24 mph 1016.4mb 80f 67f
9:12pm 18 23 mph 1016.3mb 80f 67f
9:06pm 17 22 mph 1016.2mb 80f 68f
9:00pm 20 24 mph 1016.1mb 80f 67f
8:48pm 20 28 mph 1015.9mb 81f 68f
8:42pm 21 28 mph 1015.9mb 81f 68f
8:36pm 21 25 mph 1015.7mb 81f 68f
8:30pm 20 24 mph 1015.5mb 81f 68f
8:24pm 18 23 mph 1015.4mb 81f 69f
8:18pm 20 24 mph 1015.2mb 81f 69f
8:12pm 20 26 mph 1015.2mb 81f 69f
8:06pm 21 25 mph 1015mb 81f 69f
8:00pm 20 24 mph 1014.9mb 82f 70f
7:48pm 20 24 mph 1014.9mb 82f 70f
7:42pm 21 25 mph 1014.8mb 82f 70f
7:36pm 20 24 mph 1014.8mb 82f 70f
7:30pm 20 24 mph 1014.7mb 82f 70f
7:24pm 18 23 mph 1014.6mb 82f 71f
7:18pm 20 24 mph 1014.5mb 82f 71f
7:12pm 21 25 mph 1014.5mb 82f 71f
7:06pm 18 23 mph 1014.4mb 82f 71f
7:00pm 20 24 mph 1014.3mb 82f 71f
6:48pm 18 22 mph 1014.2mb 82f 72f
6:42pm 17 22 mph 1014.1mb 82f 72f
6:36pm 18 23 mph 1014.1mb 82f 72f
6:30pm 17 22 mph 1014mb 82f 72f
6:24pm 17 22 mph 1013.9mb 82f 72f
6:18pm 16 21 mph 1013.9mb 82f 72f
6:12pm 17 20 mph 1013.8mb 83f 72f
6:06pm 15 22 mph 1013.7mb 83f 73f
6:00pm 18 22 mph 1013.7mb 83f 73f
5:48pm 16 22 mph 1013.6mb 82f 73f
5:42pm 17 22 mph 1013.6mb 82f 73f
5:36pm 17 22 mph 1013.5mb 82f 73f
5:30pm 17 22 mph 1013.5mb 82f 73f
5:24pm 17 21 mph 1013.4mb 82f 73f
5:18pm 17 22 mph 1013.4mb 82f 73f
5:12pm 17 22 mph 1013.3mb 82f 74f
5:06pm 16 22 mph 1013.3mb 82f 74f
5:00pm 15 20 mph 1013.2mb 82f 74f
4:48pm 16 21 mph 1013mb 82f 74f
4:42pm 16 20 mph 1013mb 82f 74f
4:36pm 16 20 mph 1013mb 83f 75f
4:30pm 17 21 mph 1013mb 83f 74f
4:24pm 16 20 mph 1013mb 83f 75f
4:18pm 16 22 mph 1012.9mb 83f 75f
4:12pm 18 23 mph 1012.9mb 83f 75f
4:06pm 17 21 mph 1012.9mb 83f 75f
4:00pm 15 22 mph 1012.8mb 83f 75f
3:54pm 17 22 mph 1012.9mb 83f 75f
3:48pm 16 21 mph 1012.9mb 83f 76f
3:42pm 17 22 mph 1012.9mb 83f 76f
3:36pm 17 22 mph 1012.8mb 83f 76f
3:30pm 18 22 mph 1012.7mb 83f 76f
3:24pm 17 21 mph 1012.7mb 83f 76f
3:18pm 16 21 mph 1012.6mb 84f 77f
3:12pm 16 22 mph 1012.6mb 84f 77f
3:06pm 16 20 mph 1012.6mb 83f 77f
3:00pm 18 22 mph 1012.7mb 83f 77f
2:54pm 14 20 mph 1012.7mb 83f 77f
2:48pm 14 17 mph 1012.7mb 83f 78f
2:42pm 14 17 mph 1012.7mb 83f 78f
2:36pm 10 18 mph 1012.5mb 83f 79f
2:30pm 14 18 mph 1012.6mb 83f 78f
2:24pm 13 16 mph 1012.7mb 83f 78f
2:18pm 8 11 mph 1012.4mb 82f 80f
2:12pm 11 13 mph 1012.3mb 82f 79f
2:06pm 9 11 mph 1012.3mb 82f 80f
2:00pm 8 9 mph 1012.4mb 82f 80f
1:54pm 8 9 mph 1012.4mb 82f 80f
1:48pm 6 9 mph 1012.4mb 81f 80f
1:42pm 9 10 mph 1012.4mb 81f 79f
1:36pm 6 9 mph 1012.5mb 81f 79f
1:30pm 8 9 mph 1012.5mb 81f 79f
1:24pm 7 9 mph 1012.6mb 80f 79f
1:18pm 8 10 mph 1012.6mb 80f 79f
1:12pm 6 8 mph 1012.7mb 80f 79f
1:06pm 6 8 mph 1012.7mb 80f 79f
1:00pm 6 7 mph 1012.8mb 80f 79f
12:54pm 5 6 mph 1012.9mb 80f 79f
12:48pm 5 6 mph 1013mb 80f 79f
12:42pm 2 6 mph 1013mb 80f 80f
12:36pm 3 5 mph 1013.1mb 79f 79f
12:30pm 2 5 mph 1013.1mb 79f 80f
12:24pm 2 6 mph 1013.1mb 79f 80f
12:18pm 5 6 mph 1013.2mb 79f 79f
12:12pm 3 5 mph 1013.2mb 79f 80f
12:06pm 5 8 mph 1013.2mb 79f 79f
12:00pm 6 8 mph 1013.2mb 79f 78f
11:54am 6 8 mph 1013.2mb 79f 78f
11:48am 3 7 mph 1013.3mb 79f 78f
11:42am 3 6 mph 1013.3mb 79f 78f
11:36am 3 5 mph 1013.3mb 79f 78f
11:30am 5 6 mph 1013.2mb 79f 78f
11:24am 2 3 mph 1013.2mb 78f 79f
11:18am 2 3 mph 1013.2mb 78f 78f
11:12am 3 5 mph 1013.1mb 78f 78f
11:06am 3 5 mph 1013.1mb 78f 78f
11:00am 3 6 mph 1013mb 78f 78f
10:54am 5 7 mph 1013mb 78f 78f
10:48am 6 7 mph 1013mb 78f 77f
10:42am 6 7 mph 1012.9mb 78f 77f
10:36am 6 7 mph 1012.9mb 78f 77f
10:30am 5
mph
1012.9mb 78f 77f
10:24am 5 6 mph 1012.9mb 78f 77f
10:18am 5 6 mph 1012.8mb 78f 77f
10:12am 5 6 mph 1012.8mb 78f 77f
10:06am 5 6 mph 1012.8mb 78f 78f
10:00am 3 5 mph 1012.7mb 78f 77f
9:54am 3 5 mph 1012.6mb 78f 78f
9:48am 2 5 mph 1012.6mb 78f 78f
9:42am 3 5 mph 1012.6mb 78f 77f
9:36am 5 7 mph 1012.5mb 78f 77f
9:30am 5 7 mph 1012.5mb 78f 76f
9:24am 6 8 mph 1012.4mb 78f 76f
9:18am 6 7 mph 1012.3mb 78f 76f
9:12am 6 8 mph 1012.4mb 78f 76f
9:06am 6 8 mph 1012.3mb 78f 76f
9:00am 5 6 mph 1012.3mb 78f 76f
8:54am 6 7 mph 1012.3mb 78f 76f
8:48am 7 8 mph 1012.2mb 78f 76f
8:42am 7 8 mph 1012.1mb 78f 76f
8:36am 7 8 mph 1012.1mb 78f 76f
8:30am 7 8 mph 1012.1mb 78f 76f
8:24am 6 7 mph 1012mb 78f 76f
8:18am 5 6 mph 1011.9mb 78f 76f
8:12am 3 5 mph 1011.9mb 78f 76f
8:06am 3 6 mph 1011.9mb 78f 75f
8:00am 5 6 mph 1011.8mb 78f 75f
7:54am 5 6 mph 1011.8mb 78f 75f
7:48am 3 5 mph 1011.8mb 78f 75f
7:42am 3 6 mph 1011.6mb 78f 75f
7:36am 5 6 mph 1011.4mb 78f 75f
7:30am 5 7 mph 1011.4mb 78f 75f
7:24am 6 7 mph 1011.2mb 78f 75f
7:18am 7 8 mph 1011.1mb 78f 75f
7:12am 6 8 mph 1011mb 78f 75f
7:06am 6 8 mph 1010.9mb 78f 75f
7:00am 7 9 mph 1010.7mb 78f 75f
6:54am 8 9 mph 1010.7mb 78f 75f
6:48am 9 10 mph 1010.6mb 78f 75f
6:42am 9 10 mph 1010.5mb 78f 75f
6:36am 9 10 mph 1010.4mb 78f 75f
6:30am 9 10 mph 1010.3mb 78f 75f
6:24am 10 11 mph 1010.3mb 78f 75f
6:18am 9 11 mph 1010.2mb 78f 75f
6:12am 10 11 mph 1010.1mb 78f 75f
6:06am 9 10 mph 1010mb 78f 75f
6:00am 9 11 mph 1009.9mb 78f 75f
5:54am 9 11 mph 1009.8mb 78f 75f
5:48am 11 13 mph 1009.7mb 78f 75f
5:42am 10 13 mph 1009.6mb 78f 75f
5:36am 11 15 mph 1009.6mb 78f 75f
5:30am 13 15 mph 1009.6mb 78f 75f
5:24am 11 14 mph 1009.6mb 78f 75f
5:18am 13 15 mph 1009.5mb 78f 75f
5:12am 14 16 mph 1009.4mb 79f 75f
5:06am 14 16 mph 1009.4mb 79f 75f
5:00am 11 15 mph 1009.5mb 79f 75f
4:54am 13 15 mph 1009.4mb 79f 74f
4:48am 13 16 mph 1009.4mb 79f 75f
4:42am 11 14 mph 1009.3mb 79f 74f
4:36am 13 15 mph 1009.3mb 79f 75f
4:30am 13 16 mph 1009.3mb 79f 75f
4:24am 14 16 mph 1009.3mb 78f 75f
4:18am 14 16 mph 1009.3mb 78f 75f
4:12am 14 17 mph 1009.2mb 78f 75f
4:06am 15 17 mph 1009.1mb 78f 75f
4:00am 15 20 mph 1009.1mb 78f 75f
3:54am 17 22 mph 1008.9mb 78f 75f
3:48am 17 21 mph 1008.9mb 78f 74f
3:42am 15 18 mph 1008.9mb 79f 75f
3:36am 15 21 mph 1008.9mb 79f 75f
3:30am 18 21 mph 1008.8mb 79f 75f
3:24am 17 20 mph 1008.9mb 79f 75f
3:18am 18 20 mph 1008.9mb 79f 75f
3:12am 17 20 mph 1008.8mb 79f 75f
3:06am 20 21 mph 1008.8mb 79f 75f
3:00am 18 21 mph 1008.8mb 79f 75f
2:54am 16 18 mph 1008.9mb 79f 75f
2:48am 16 18 mph 1009.1mb 79f 75f
2:42am 16 18 mph 1009.1mb 79f 75f
2:36am 16 18 mph 1009.1mb 79f 75f
2:30am 15 20 mph 1009.2mb 79f 75f
2:24am 15 20 mph 1009.2mb 79f 75f
2:18am 15 20 mph 1009.2mb 79f 75f
2:12am 17 21 mph 1009.1mb 79f 75f
2:06am 16 20 mph 1009.1mb 79f 75f
2:00am 16 21 mph 1009.1mb 79f 75f
1:54am 18 21 mph 1009.1mb 79f 75f
1:48am 18 22 mph 1009.1mb 79f 75f
1:42am 20 22 mph 1009mb 79f 75f
1:36am 18 22 mph 1009.1mb 79f 75f
1:30am 18 22 mph 1009.1mb 79f 75f
1:24am 18 22 mph 1009.1mb 79f 75f
1:18am 20 22 mph 1009.1mb 79f 75f
1:12am 18 23 mph 1009.2mb 79f 75f
1:06am 18 23 mph 1009.3mb 79f 75f
1:00am 18 21 mph 1009.5mb 79f 75f
12:54am 17 22 mph 1009.6mb 79f 75f
12:48am 17 22 mph 1009.6mb 80f 75f
12:42am 18 21 mph 1009.7mb 80f 75f
12:36am 20 21 mph 1009.7mb 80f 75f
12:30am 17 21 mph 1009.8mb 80f 75f
12:24am 17 21 mph 1009.8mb 80f 75f
12:18am 18 21 mph 1009.8mb 80f 75f
12:12am 18 22 mph 1009.9mb 80f 75f
12:06am 18 22 mph 1009.8mb 80f 75f
12:00am 20 22 mph 1009.7mb 80f 75f
Fri 04/21 11:54pm 18 21 mph 1009.7mb 80f 75f
11:48pm 20 21 mph 1009.7mb 80f 75f
11:42pm 18 22 mph 1009.6mb 80f 75f
11:36pm 18 22 mph 1009.6mb 80f 75f
11:30pm 17 20 mph 1009.6mb 80f 75f
11:24pm 17 21 mph 1009.6mb 80f 75f
11:18pm 17 20 mph 1009.6mb 80f 75f
11:12pm 16 18 mph 1009.5mb 80f 75f
11:06pm 16 20 mph 1009.5mb 80f 76f
11:00pm 18 21 mph 1009.4mb 80f 75f
10:54pm 18 22 mph 1009.2mb 80f 75f
10:48pm 18 21 mph 1009.3mb 80f 75f
10:42pm 17 20 mph 1009.3mb 80f 75f
10:36pm 18 21 mph 1009.4mb 80f 75f
10:30pm 17 20 mph 1009.4mb 80f 75f
10:24pm 16 20 mph 1009.4mb 80f 75f
10:18pm 17 20 mph 1009.4mb 81f 76f
10:12pm 16 18 mph 1009.4mb 81f 75f
10:06pm 16 18 mph 1009.4mb 81f 75f
10:00pm 16 20 mph 1009.4mb 81f 75f
9:54pm 16 20 mph 1009.4mb 81f 75f
9:48pm 17 21 mph 1009.4mb 81f 75f
9:42pm 16 21 mph 1009.5mb 81f 76f
9:36pm 17 21 mph 1009.3mb 81f 76f
9:30pm 17 21 mph 1009.2mb 81f 75f
9:24pm 18 21 mph 1009.2mb 81f 75f
9:18pm 17 22 mph 1009.2mb 81f 76f
9:12pm 18 22 mph 1009.1mb 81f 76f
9:06pm 18 21 mph 1009.1mb 81f 76f
9:00pm 16 21 mph 1009.1mb 81f 76f
8:48pm 17 20 mph 1009.1mb 81f 76f
8:42pm 17 21 mph 1009.1mb 81f 76f
8:36pm 17 22 mph 1009.1mb 81f 76f
8:30pm 18 22 mph 1009mb 81f 76f
8:24pm 18 22 mph 1008.8mb 81f 76f
8:18pm 20 22 mph 1008.9mb 81f 76f
8:12pm 16 22 mph 1008.9mb 81f 76f
8:06pm 17 21 mph 1009mb 81f 76f
8:00pm 16 18 mph 1009mb 81f 76f
7:48pm 15 17 mph 1009.1mb 82f 77f
7:42pm 15 18 mph 1009.1mb 82f 77f
7:36pm 16 20 mph 1009mb 82f 77f
7:30pm 18 21 mph 1009mb 82f 77f
7:24pm 17 18 mph 1009mb 82f 77f
7:18pm 16 20 mph 1009.1mb 82f 78f
7:12pm 17 21 mph 1009.1mb 82f 78f
7:06pm 16 20 mph 1009mb 82f 78f
7:00pm 16 20 mph 1009mb 82f 78f
6:48pm 17 21 mph 1009mb 82f 78f
6:42pm 18 21 mph 1009mb 82f 78f
6:36pm 17 20 mph 1009mb 82f 79f
6:30pm 17 20 mph 1008.9mb 82f 79f
6:24pm 17 21 mph 1008.9mb 82f 79f
6:18pm 17 20 mph 1008.8mb 82f 79f
6:12pm 17 21 mph 1008.9mb 82f 79f
6:06pm 15 20 mph 1009mb 82f 79f
6:00pm 16 18 mph 1009.1mb 82f 79f
5:48pm 17 18 mph 1009.1mb 82f 79f
5:42pm 17 21 mph 1009.1mb 82f 79f
5:36pm 17 18 mph 1009.1mb 82f 79f
5:30pm 15 21 mph 1009.1mb 82f 79f
5:24pm 17 21 mph 1009.2mb 82f 79f
5:18pm 15 20 mph 1009.2mb 82f 79f
5:12pm 18 22 mph 1009.2mb 82f 79f
5:06pm 17 20 mph 1009.2mb 82f 79f
5:00pm 16 22 mph 1009.3mb 82f 79f
4:48pm 17 22 mph 1009.3mb 82f 79f
4:42pm 16 21 mph 1009.3mb 82f 79f
4:36pm 18 23 mph 1009.3mb 82f 79f
4:30pm 18 22 mph 1009.3mb 82f 79f
4:24pm 18 22 mph 1009.3mb 82f 79f
4:18pm 17 22 mph 1009.3mb 82f 79f
4:12pm 17 21 mph 1009.4mb 82f 79f
4:06pm 18 21 mph 1009.5mb 81f 79f
4:00pm 20 23 mph 1009.6mb 81f 79f
3:54pm 17 21 mph 1009.7mb 81f 79f
3:48pm 18 22 mph 1009.8mb 81f 79f
3:42pm 17 20 mph 1009.9mb 81f 80f
3:36pm 17 22 mph 1010.1mb 81f 79f
3:30pm 17 21 mph 1010.2mb 81f 79f
3:24pm 16 21 mph 1010.3mb 81f 79f
3:18pm 18 22 mph 1010.4mb 81f 80f
3:12pm 21 24 mph 1010.4mb 81f 79f
3:06pm 18 22 mph 1010.5mb 81f 79f
3:00pm 17 22 mph 1010.6mb 81f 80f
2:54pm 18 22 mph 1010.7mb 81f 80f
2:48pm 20 22 mph 1010.8mb 81f 79f
2:42pm 17 21 mph 1010.8mb 81f 79f
2:36pm 17 21 mph 1010.9mb 81f 79f
2:30pm 20 22 mph 1011mb 81f 79f
2:24pm 20 25 mph 1011.1mb 81f 79f
2:18pm 20 21 mph 1011.2mb 81f 79f
2:12pm 18 23 mph 1011.3mb 80f 79f
2:06pm 20 24 mph 1011.2mb 80f 79f
2:00pm 20 22 mph 1011.2mb 80f 79f
1:54pm 17 22 mph 1011.4mb 80f 79f
1:48pm 18 22 mph 1011.4mb 80f 79f
1:42pm 17 21 mph 1011.6mb 80f 79f
1:36pm 18 24 mph 1011.7mb 80f 79f
1:30pm 16 20 mph 1011.7mb 80f 79f
1:24pm 18 22 mph 1011.8mb 80f 79f
1:18pm 20 22 mph 1011.8mb 80f 79f
1:12pm 20 22 mph 1011.8mb 80f 79f
1:06pm 20 22 mph 1011.9mb 80f 79f
1:00pm 21 23 mph 1012mb 80f 79f
12:54pm 20 22 mph 1012.1mb 80f 78f
12:48pm 20 23 mph 1012.1mb 80f 78f
12:42pm 21 24 mph 1012.2mb 80f 78f
12:36pm 21 23 mph 1012.2mb 80f 78f
12:30pm 21 23 mph 1012.4mb 80f 78f
12:24pm 17 21 mph 1012.7mb 80f 78f
12:18pm 18 22 mph 1012.7mb 80f 78f
12:12pm 18 23 mph 1012.7mb 80f 78f
12:06pm 20 22 mph 1012.8mb 79f 78f
12:00pm 17 22 mph 1012.9mb 79f 78f
11:54am 17 23 mph 1013mb 79f 78f
11:48am 17 23 mph 1013.1mb 79f 78f
11:42am 20 21 mph 1013mb 79f 78f
11:36am 17 22 mph 1013.2mb 79f 78f
11:30am 18 21 mph 1013.2mb 78f 78f
11:24am 17 21 mph 1013.2mb 78f 78f
11:18am 16 20 mph 1013.3mb 78f 77f
11:12am 17 22 mph 1013.3mb 78f 77f
11:06am 16 20 mph 1013.3mb 78f 77f
11:00am 16 21 mph 1013.4mb 78f 77f
10:54am 16 21 mph 1013.4mb 77f 77f
10:48am 15 21 mph 1013.4mb 77f 77f
10:42am 17 21 mph 1013.5mb 77f 77f
10:30am 17 22 mph 1013.5mb 77f 77f
10:24am 18 21 mph 1013.5mb 77f 76f
10:18am 14 18 mph 1013.5mb 77f 77f
10:12am 15 18 mph 1013.4mb 77f 76f
10:06am 16 20 mph 1013.4mb 77f 76f
10:00am 15 17 mph 1013.4mb 77f 76f
9:54am 16 18 mph 1013.4mb 77f 76f
9:48am 15 18 mph 1013.4mb 77f 76f
9:42am 16 20 mph 1013.3mb 77f 76f
9:36am 18 23 mph 1013.2mb 77f 76f
9:30am 20 22 mph 1013.1mb 77f 76f
9:24am 17 20 mph 1013.2mb 77f 76f
9:18am 17 20 mph 1013.2mb 77f 75f
9:12am 16 18 mph 1013.2mb 77f 75f
9:06am 17 20 mph 1013.1mb 77f 75f
9:00am 20 21 mph 1013.1mb 77f 75f
8:30am 11 14 mph 1013.3mb 77f 74f
8:24am 11 14 mph 1013.3mb 77f 74f
8:18am 13 14 mph 1013.4mb 77f 74f
8:12am 13 14 mph 1013.5mb 77f 74f
8:06am 10 13 mph 1013.5mb 77f 74f
8:00am 10 13 mph 1013.4mb 77f 74f
7:54am 10 13 mph 1013.3mb 77f 74f
7:48am 11 13 mph 1013.3mb 77f 74f
7:42am 10 13 mph 1013.3mb 77f 74f
7:36am 11 13 mph 1013.3mb 77f 73f
7:30am 10 13 mph 1013.3mb 77f 73f
7:24am 10 11 mph 1013.3mb 78f 74f
7:18am 10 13 mph 1013.3mb 78f 73f
7:12am 10 11 mph 1013.2mb 78f 73f
7:06am 10 11 mph 1013.2mb 78f 73f
7:00am 9 11 mph 1013.2mb 78f 73f
6:54am 10 13 mph 1013.1mb 78f 73f
6:48am 9 14 mph 1013mb 78f 73f
6:42am 10 13 mph 1013mb 78f 73f
6:36am 11 13 mph 1013mb 78f 73f
6:30am 10 13 mph 1013mb 78f 73f
6:24am 10 11 mph 1013mb 78f 73f
6:18am 10 13 mph 1013mb 78f 74f
6:12am 10 13 mph 1013mb 78f 74f
6:06am 10 13 mph 1012.9mb 78f 74f
6:00am 10 13 mph 1012.9mb 78f 74f
5:54am 10 13 mph 1012.8mb 78f 74f
5:48am 11 13 mph 1012.8mb 78f 74f
5:42am 11 14 mph 1012.8mb 78f 74f
5:36am 11 13 mph 1012.8mb 78f 74f
5:30am 11 13 mph 1012.9mb 78f 74f
5:24am 13 14 mph 1012.9mb 78f 74f
5:18am 11 14 mph 1012.9mb 78f 74f
5:12am 13 14 mph 1012.9mb 78f 74f
5:06am 13 14 mph 1012.9mb 78f 74f
5:00am 11 14 mph 1012.9mb 78f 74f
4:54am 11 14 mph 1012.9mb 78f 74f
4:48am 13 15 mph 1013mb 78f 74f
4:42am 11 14 mph 1013.1mb 78f 74f
4:36am 11 14 mph 1013.1mb 78f 74f
4:30am 13 15 mph 1013.1mb 78f 74f
4:24am 14 15 mph 1013.1mb 78f 74f
4:18am 14 15 mph 1013.1mb 78f 74f
4:12am 13 14 mph 1013.1mb 79f 74f
4:06am 14 15 mph 1013.2mb 79f 74f
4:00am 14 15 mph 1013.2mb 79f 74f
3:54am 13 15 mph 1013.2mb 79f 74f
3:48am 14 16 mph 1013.3mb 79f 74f
3:42am 14 15 mph 1013.3mb 79f 74f
3:36am 13 14 mph 1013.3mb 78f 74f
3:30am 11 14 mph 1013.3mb 78f 74f
3:24am 11 14 mph 1013.4mb 78f 74f
3:18am 11 14 mph 1013.4mb 78f 74f
3:12am 13 15 mph 1013.4mb 78f 74f
3:06am 13 16 mph 1013.4mb 78f 74f
3:00am 14 16 mph 1013.4mb 78f 74f
2:54am 14 15 mph 1013.6mb 78f 74f
2:48am 14 15 mph 1013.6mb 78f 74f
2:42am 14 15 mph 1013.6mb 78f 74f
2:36am 14 16 mph 1013.7mb 78f 74f
2:30am 13 15 mph 1013.8mb 78f 74f
2:24am 13 15 mph 1013.9mb 78f 74f
2:18am 14
mph
1014mb 78f 74f
2:12am 11 14 mph 1014.1mb 78f 74f
2:06am 13 15 mph 1014.2mb 78f 74f
2:00am 14 15 mph 1014.1mb 78f 74f
1:54am 13 15 mph 1014.2mb 78f 74f
1:48am 14 15 mph 1014.3mb 78f 74f
1:42am 13 15 mph 1014.3mb 78f 74f
1:36am 13 15 mph 1014.3mb 78f 74f
1:30am 14 15 mph 1014.4mb 78f 74f
1:24am 14 16 mph 1014.5mb 78f 74f
1:18am 14 16 mph 1014.6mb 78f 74f
1:12am 14 16 mph 1014.7mb 78f 75f
1:06am 14 16 mph 1014.7mb 78f 75f
1:00am 15 17 mph 1014.8mb 78f 75f
12:54am 14 16 mph 1014.8mb 78f 75f
12:48am 15 16 mph - - -
12:42am 14 16 mph - - -
12:36am 14 16 mph - - -
12:30am 15 16 mph 1015mb 79f 75f
12:24am 14 16 mph 1015.1mb 79f 74f
12:18am 13 15 mph 1015.2mb 79f 75f
12:12am 13 16 mph 1015.2mb 79f 75f
12:06am 14 16 mph 1015.1mb 79f 75f
12:00am 14 16 mph 1015.1mb 79f 75f
Thu 04/20 11:54pm 15 18 mph 1015.1mb 79f 75f
11:48pm 16 18 mph 1015.1mb 79f 75f
11:42pm 16 20 mph 1015mb 79f 75f
11:36pm 15 18 mph 1015mb 79f 75f
11:30pm 16 18 mph 1015mb 80f 75f
11:24pm 15 17 mph 1015.1mb 80f 75f
11:18pm 15 17 mph 1015.2mb 80f 75f
11:12pm 15 17 mph 1015.3mb 80f 75f
11:06pm 16 20 mph 1015.3mb 80f 75f
11:00pm 14 16 mph 1015.3mb 80f 75f
10:54pm 14 20 mph 1015.3mb 80f 75f
10:48pm 16 18 mph 1015.2mb 80f 75f
10:42pm 17 21 mph 1015.1mb 80f 75f
10:36pm 16 20 mph 1015.1mb 80f 75f
10:30pm 16 20 mph 1015.1mb 80f 75f
10:24pm 17 21 mph 1015.1mb 80f 75f
10:18pm 20 21 mph 1015mb 80f 75f
10:12pm 16 22 mph 1015mb 80f 76f
10:06pm 18 22 mph 1015mb 80f 75f
10:00pm 18 23 mph 1015mb 80f 76f
9:54pm 18 21 mph 1015mb 80f 76f
9:48pm 18 22 mph 1014.9mb 80f 76f
9:42pm 20 22 mph 1014.8mb 80f 76f
9:36pm 18 21 mph 1014.7mb 80f 76f
9:30pm 18 21 mph 1014.7mb 80f 76f
9:24pm 18 22 mph 1014.7mb 80f 76f
9:18pm 18 21 mph 1014.6mb 80f 76f
9:12pm 17 21 mph 1014.5mb 80f 76f
9:06pm 17 21 mph 1014.5mb 80f 76f
9:00pm 17 21 mph 1014.4mb 80f 76f
8:54pm 17 22 mph 1014.3mb 80f 76f
8:48pm 17 21 mph 1014.3mb 80f 76f
8:42pm 18 22 mph 1014.3mb 80f 76f
8:36pm 18 21 mph 1014.3mb 80f 76f
8:30pm 17 20 mph 1014.3mb 80f 76f
8:24pm 18 20 mph 1014.3mb 80f 76f
8:18pm 17 18 mph 1014.2mb 80f 76f
8:12pm 16 18 mph 1014.1mb 80f 76f
8:06pm 17 20 mph 1014mb 80f 76f
8:00pm 16 20 mph 1014.1mb 80f 76f
7:54pm 16 18 mph 1014.1mb 80f 76f
7:48pm 16 20 mph 1014mb 80f 76f
7:42pm 14 18 mph 1014.1mb 80f 76f
7:36pm 16 18 mph 1014mb 80f 76f
7:30pm 17 20 mph 1014mb 80f 76f
7:24pm 17 20 mph 1014mb 80f 76f
7:18pm 16 20 mph 1014mb 80f 76f
7:12pm 17 20 mph 1014mb 80f 76f
7:06pm 16 20 mph 1014.1mb 80f 76f
7:00pm 17 20 mph 1014.1mb 80f 76f
6:54pm 17 18 mph 1014.1mb 80f 76f
6:48pm 17 20 mph 1014.2mb 80f 76f
6:42pm 17 18 mph 1014.1mb 80f 76f
6:36pm 17 20 mph 1014.1mb 80f 76f
6:30pm 17 20 mph 1014.1mb 80f 76f
6:24pm 17 18 mph 1014.1mb 80f 76f
6:18pm 17 21 mph 1014.1mb 80f 77f
6:12pm 17 20 mph 1014.1mb 80f 76f
6:06pm 17 20 mph 1014.1mb 80f 77f
6:00pm 17 20 mph 1014.1mb 80f 76f
5:54pm 17 21 mph 1014.1mb 80f 77f
5:48pm 17 21 mph 1014.2mb 80f 76f
5:42pm 17 20 mph 1014.2mb 80f 76f
5:36pm 18 20 mph 1014.2mb 80f 76f
5:30pm 17 18 mph 1014.3mb 80f 77f
5:24pm 16 18 mph 1014.3mb 80f 77f
5:18pm 16 20 mph 1014.3mb 80f 77f
5:12pm 16 18 mph 1014.3mb 80f 77f
5:06pm 17 20 mph 1014.4mb 80f 76f
5:00pm 17 21 mph 1014.4mb 80f 77f
4:54pm 18 22 mph 1014.4mb 80f 77f
4:48pm 18 21 mph 1014.4mb 80f 76f
4:42pm 18 21 mph 1014.4mb 80f 76f
4:36pm 17 20 mph 1014.5mb 80f 77f
4:30pm 17 20 mph 1014.5mb 80f 76f
4:24pm 17 20 mph 1014.5mb 80f 76f
4:18pm 17 18 mph 1014.6mb 80f 76f
4:12pm 16 18 mph 1014.6mb 80f 77f
4:06pm 16 18 mph 1014.7mb 80f 77f
4:00pm 17 18 mph 1014.8mb 80f 76f
3:54pm 16 18 mph 1014.9mb 80f 77f
3:48pm 17 21 mph 1014.9mb 80f 77f
3:42pm 18 21 mph 1015mb 80f 76f
3:36pm 18 21 mph 1015mb 80f 77f
3:30pm 17 21 mph 1015.2mb 80f 77f
3:24pm 18 20 mph 1015.3mb 80f 77f
3:18pm 17 20 mph 1015.4mb 80f 77f
3:12pm 17 20 mph 1015.5mb 80f 77f
3:06pm 17 20 mph 1015.6mb 80f 77f
3:00pm 17 20 mph 1015.7mb 80f 77f
2:54pm 15 18 mph 1015.8mb 80f 77f
2:48pm 17 20 mph 1015.8mb 80f 77f
2:42pm 15 20 mph 1015.8mb 80f 77f
2:36pm 16 18 mph 1015.9mb 79f 77f
2:30pm 15 18 mph 1016mb 79f 77f
2:24pm 17 18 mph 1016mb 79f 77f
2:18pm 15 18 mph 1016.1mb 79f 77f
2:12pm 14 16 mph 1016.1mb 79f 78f
2:06pm 11 14 mph 1016.2mb 79f 79f
2:00pm 13 14 mph 1016.3mb 79f 79f
1:54pm 11 14 mph 1016.3mb 79f 79f
1:48pm 13 15 mph 1016.4mb 79f 79f
1:42pm 14 16 mph 1016.4mb 79f 78f
1:36pm 14 15 mph 1016.5mb 79f 78f
1:30pm 13 15 mph 1016.6mb 79f 78f
1:24pm 14 16 mph 1016.6mb 78f 78f
1:18pm 14 16 mph 1016.6mb 78f 78f
1:12pm 15 16 mph 1016.6mb 78f 78f
1:06pm 11 16 mph 1016.7mb 78f 78f
1:00pm 14 16 mph 1016.8mb 78f 78f
12:54pm 14 16 mph 1016.9mb 78f 78f
12:48pm 14 16 mph 1016.9mb 78f 78f
12:42pm 14 18 mph 1017mb 78f 78f
12:36pm 16 18 mph 1017mb 78f 77f
12:30pm 14 16 mph 1017.1mb 78f 78f
12:24pm 16 18 mph 1017.1mb 78f 78f
12:18pm 14 17 mph 1017.1mb 78f 78f
12:12pm 13 15 mph 1017.1mb 78f 78f
12:06pm 13 15 mph 1017.1mb 77f 78f
12:00pm 14 15 mph 1017.2mb 77f 77f
11:54am 11 14 mph 1017.3mb 77f 77f
11:48am 14 16 mph 1017.3mb 77f 77f
11:42am 14 15 mph 1017.2mb 77f 77f
11:36am 15 16 mph 1017.3mb 76f 77f
11:30am 15 17 mph 1017.3mb 76f 77f
11:24am 14 18 mph 1017.3mb 76f 77f
11:18am 15 17 mph 1017.3mb 76f 77f
11:12am 15 17 mph 1017.3mb 76f 77f
11:06am 15 18 mph 1017.3mb 76f 77f
11:00am 16 17 mph 1017.2mb 76f 77f
10:54am 14 16 mph 1017.2mb 76f 77f
10:48am 14 16 mph 1017.2mb 76f 76f
10:42am 14 17 mph 1017.1mb 76f 76f
10:36am 14 17 mph 1017.1mb 76f 76f
10:30am 14 16 mph 1017mb 76f 76f
10:24am 14 16 mph 1017mb 76f 76f
10:18am 14 16 mph 1017mb 76f 76f
10:12am 14 15 mph 1017mb 76f 76f
10:06am 14 15 mph 1016.9mb 76f 76f
10:00am 13 15 mph 1017mb 76f 76f
9:54am 13 14 mph 1017mb 76f 76f
9:48am 11 15 mph 1017mb 76f 76f
9:42am 13 16 mph 1017mb 76f 76f
9:36am 14 16 mph 1017mb 76f 75f
9:30am 14 15 mph 1017mb 76f 75f
9:24am 13 16 mph 1017mb 76f 75f
9:18am 13 16 mph 1016.9mb 76f 75f
9:12am 14 17 mph 1016.9mb 76f 75f
9:06am 14 16 mph 1016.9mb 76f 75f
9:00am 14 15 mph 1016.9mb 76f 74f
8:54am 11 14 mph 1016.8mb 76f 74f
8:48am 11 13 mph 1016.8mb 76f 74f
8:42am 13 14 mph 1016.7mb 76f 74f
8:36am 13 14 mph 1016.7mb 76f 74f
8:30am 11 14 mph 1016.6mb 76f 74f
8:24am 10 13 mph 1016.6mb 76f 74f
8:18am 13
mph
1016.6mb 76f 74f
8:12am 10 14 mph 1016.6mb 76f 74f
8:06am 11 13 mph 1016.5mb 76f 74f
8:00am 10 11 mph 1016.4mb 76f 74f
7:54am 10 11 mph 1016.4mb 76f 74f
7:48am 10 13 mph 1016.3mb 76f 74f
7:42am 10 11 mph 1016.3mb 76f 73f
7:36am 10 13 mph 1016.3mb 76f 73f
7:30am 10 14 mph 1016.2mb 76f 73f
7:24am 10 13 mph 1016.2mb 76f 73f
7:18am 10 13 mph 1016.2mb 76f 73f
7:12am 10 13 mph 1016.2mb 76f 73f
7:06am 11 13 mph 1016.1mb 76f 73f
7:00am 10 13 mph 1016mb 76f 73f
6:54am 10 13 mph 1016mb 76f 73f
6:48am 10 13 mph 1015.9mb 76f 73f
6:42am 11 14 mph 1015.8mb 76f 73f
6:36am 11 14 mph 1015.7mb 76f 73f
6:30am 10 13 mph 1015.7mb 76f 73f
6:24am 10 13 mph 1015.6mb 76f 73f
6:18am 11 13 mph 1015.6mb 76f 73f
6:12am 10 13 mph 1015.5mb 76f 73f
6:06am 10 13 mph 1015.5mb 76f 73f
6:00am 10 13 mph 1015.4mb 76f 73f
5:54am 10 11 mph 1015.4mb 76f 73f
5:48am 9 11 mph 1015.4mb 76f 73f
5:42am 11
mph
1015.3mb 76f 73f
5:36am 11 13 mph 1015.3mb 76f 73f
5:30am 10 13 mph 1015.3mb 76f 73f
5:24am 9 11 mph 1015.3mb 76f 73f
5:18am 9 10 mph 1015.3mb 76f 73f
5:12am 9 11 mph 1015.4mb 76f 74f
5:06am 10 13 mph 1015.4mb 76f 73f
5:00am 10 13 mph 1015.3mb 76f 73f
4:54am 10 13 mph 1015.3mb 76f 73f
4:48am 11 14 mph 1015.3mb 76f 73f
4:42am 10 11 mph 1015.4mb 76f 73f
4:36am 10 11 mph 1015.5mb 76f 73f
4:30am 9 11 mph 1015.5mb 76f 73f
4:24am 9 11 mph 1015.4mb 76f 73f
4:18am 9 13 mph 1015.4mb 76f 74f
4:12am 10 11 mph 1015.4mb 76f 73f
4:06am 9 11 mph 1015.4mb 76f 74f
4:00am 9 11 mph 1015.4mb 76f 73f
3:54am 9 11 mph 1015.4mb 76f 73f
3:48am 9 13 mph 1015.3mb 76f 74f
3:42am 10 11 mph 1015.3mb 76f 73f
3:36am 11 14 mph 1015.3mb 76f 74f
3:30am 13 14 mph 1015.3mb 76f 74f
3:24am 13 14 mph 1015.4mb 76f 73f
3:18am 13 15 mph 1015.4mb 76f 74f
3:12am 13 14 mph 1015.5mb 76f 74f
3:06am 13 14 mph 1015.6mb 76f 74f
3:00am 13 15 mph 1015.7mb 76f 74f
2:54am 14 15 mph 1015.7mb 76f 74f
2:48am 13 15 mph 1015.8mb 77f 74f
2:42am 14 16 mph 1015.8mb 77f 74f
2:36am 13 16 mph 1015.8mb 77f 74f
2:30am 13 15 mph 1015.9mb 77f 74f
2:24am 13 14 mph 1016mb 77f 74f
2:18am 11 14 mph 1016.1mb 77f 74f
2:12am 13 14 mph 1016.2mb 77f 74f
2:06am 13 15 mph 1016.3mb 77f 74f
2:00am 14 15 mph 1016.4mb 77f 74f
1:54am 14 15 mph 1016.5mb 77f 74f
1:48am 15 16 mph 1016.5mb 77f 74f
1:42am 13 15 mph 1016.6mb 77f 74f
1:36am 13 15 mph 1016.7mb 77f 74f
1:30am 13 16 mph 1016.7mb 77f 74f
1:24am 14 16 mph 1016.7mb 77f 74f
1:18am 15 16 mph 1016.8mb 77f 74f
1:12am 15 17 mph 1016.8mb 77f 74f
1:06am 16 17 mph 1016.8mb 77f 74f
1:00am 14 16 mph 1016.8mb 77f 74f
12:54am 15 18 mph 1016.8mb 77f 74f
12:48am 15 17 mph 1016.8mb 77f -
12:42am 14 16 mph 1017mb 77f -
12:36am 15 18 mph 1017mb 77f -
12:30am 16 20 mph 1016.9mb 77f 75f
12:24am 16 20 mph 1016.9mb 77f 75f
12:18am 17 20 mph 1016.9mb 77f 74f
12:12am 16 21 mph 1016.9mb 77f 75f
12:06am 18 21 mph 1016.8mb 77f 75f
12:00am 18 22 mph 1016.8mb 77f 75f
Wed 04/19 11:54pm 15 21 mph 1016.9mb 77f 75f
11:48pm 16 20 mph 1016.9mb 77f 75f
11:42pm 17 21 mph 1016.9mb 77f 75f
11:36pm 17 21 mph 1016.9mb 77f 74f
11:30pm 18 21 mph 1016.9mb 77f 74f
11:24pm 18 21 mph 1016.9mb 77f 74f
11:18pm 18 21 mph 1017mb 77f 75f
11:12pm 18 21 mph 1016.9mb 77f 75f
11:06pm 17 20 mph 1016.9mb 77f 75f
11:00pm 18 21 mph 1016.9mb 77f 75f
10:54pm 18 22 mph 1016.8mb 77f 75f
10:48pm 17 21 mph 1016.8mb 77f 75f
10:42pm 20 22 mph 1016.8mb 77f 75f
10:36pm 18 22 mph 1016.8mb 77f 75f
10:30pm 20 23 mph 1016.8mb 77f 75f
10:24pm 20 21 mph 1016.8mb 77f 75f
10:18pm 17 20 mph 1016.8mb 77f 75f
10:12pm 17 20 mph 1016.8mb 77f 75f
10:06pm 16 20 mph 1016.8mb 77f 75f
10:00pm 17 21 mph 1016.8mb 77f 75f
9:54pm 16 20 mph 1016.8mb 77f 75f
9:48pm 16 20 mph 1016.7mb 77f 75f
9:42pm 16 20 mph 1016.7mb 78f 75f
9:36pm 17 20 mph 1016.6mb 78f 75f
9:30pm 18 20 mph 1016.5mb 78f 75f
9:24pm 16 21 mph 1016.5mb 78f 75f
9:18pm 16 20 mph 1016.5mb 78f 75f
9:12pm 16 20 mph 1016.4mb 78f 75f
9:06pm 17 21 mph 1016.4mb 78f 75f
9:00pm 18 21 mph 1016.2mb 78f 75f
8:54pm 18 21 mph 1016.2mb 78f 75f
8:48pm 18 22 mph 1016mb 78f 75f
8:42pm 20 21 mph 1016mb 78f 75f
8:36pm 17 21 mph 1016mb 78f 75f
8:30pm 18 22 mph 1015.9mb 78f 75f
8:24pm 20 22 mph 1015.8mb 78f 75f
8:18pm 20 22 mph - - -
8:12pm 20 22 mph 1015.6mb 78f 75f
8:06pm 18 23 mph 1015.5mb 78f 75f
8:00pm 21 23 mph 1015.5mb 78f 75f